Time;durP1;ratioP1;P1;durP2;ratioP2;P2;SDS_P1;SDS_P2;PMS_P1;PMS_P2;Temp;Humidity;BMP_temperature;BMP_pressure;BME280_temperature;BME280_humidity;BME280_pressure;Samples;Min_cycle;Max_cycle;Signal;HPM_P1;HPM_P2
2022/12/26 00:00:02;;;;;;;;;;;;;;;;;;1023085;29;19914;-76
2022/12/26 00:00:32;;;;;;;;;;;;;;;;;;1023027;28;20021;-77
2022/12/26 00:01:03;;;;;;;;;;;;;;;;;;1026819;28;20317;-77
2022/12/26 00:01:34;;;;;;;;;;;;;;;;;;1023168;29;19983;-77
2022/12/26 00:02:05;;;;;;;;;;;;;;;;;;1023520;29;20410;-77
2022/12/26 00:02:36;;;;;;;;;;;;;;;;;;1023477;28;19911;-77
2022/12/26 00:03:07;;;;;;;;;;;;;;;;;;1027013;28;19911;-77
2022/12/26 00:03:38;;;;;;;;;;;;;;;;;;1023235;28;19910;-77
2022/12/26 00:04:08;;;;;;;;;;;;;;;;;;1027233;28;20021;-77
2022/12/26 00:04:39;;;;;;;;;;;;;;;;;;1027413;28;19911;-77
2022/12/26 00:05:10;;;;;;;;;;;;;;;;;;1027181;28;19910;-77
2022/12/26 00:05:41;;;;;;;;;;;;;;;;;;1027150;28;19921;-77
2022/12/26 00:06:12;;;;;;;;;;;;;;;;;;1026788;28;19945;-76
2022/12/26 00:06:43;;;;;;;;;;;;;;;;;;1023572;29;20334;-77
2022/12/26 00:07:14;;;;;;;;;;;;;;;;;;1023447;29;19910;-77
2022/12/26 00:07:45;;;;;;;;;;;;;;;;;;1023178;28;20334;-77
2022/12/26 00:08:16;;;;;;;;;;;;;;;;;;1023382;28;19918;-77
2022/12/26 00:08:47;;;;;;;;;;;;;;;;;;1027230;28;20081;-76
2022/12/26 00:09:18;;;;;;;;;;;;;;;;;;1027056;28;19911;-77
2022/12/26 00:09:49;;;;;;;;;;;;;;;;;;1027335;28;19926;-77
2022/12/26 00:10:19;;;;;;;;;;;;;;;;;;1027180;28;20005;-77
2022/12/26 00:10:50;;;;;;;;;;;;;;;;;;1023170;29;19938;-76
2022/12/26 00:11:21;;;;;;;;;;;;;;;;;;1022956;29;20441;-76
2022/12/26 00:11:52;;;;;;;;;;;;;;;;;;1023291;29;20005;-77
2022/12/26 00:12:23;;;;;;;;;;;;;;;;;;1023202;29;20306;-77
2022/12/26 00:12:54;;;;;;;;;;;;;;;;;;1023314;29;19911;-77
2022/12/26 00:13:25;;;;;;;;;;;;;;;;;;1019050;29;20670;-76
2022/12/26 00:13:55;;;;;;;;;;;;;;;;;;1019231;29;19919;-77
2022/12/26 00:14:27;;;;;;;;;;;;;;;;;;1019489;29;20413;-77
2022/12/26 00:14:58;;;;;;;;;;;;;;;;;;1019740;29;19982;-76
2022/12/26 00:15:28;;;;;;;;;;;;;;;;;;1019134;29;19915;-77
2022/12/26 00:15:59;;;;;;;;;;;;;;;;;;1019118;29;20385;-77
2022/12/26 00:16:30;;;;;;;;;;;;;;;;;;1018989;29;19988;-77
2022/12/26 00:17:01;;;;;;;;;;;;;;;;;;1023680;28;20438;-77
2022/12/26 00:17:32;;;;;;;;;;;;;;;;;;1024023;28;19985;-78
2022/12/26 00:18:03;;;;;;;;;;;;;;;;;;1026554;28;20321;-77
2022/12/26 00:18:34;;;;;;;;;;;;;;;;;;1022877;29;19925;-77
2022/12/26 00:19:04;;;;;;;;;;;;;;;;;;1019360;29;19942;-77
2022/12/26 00:19:35;;;;;;;;;;;;;;;;;;1019043;29;19943;-77
2022/12/26 00:20:06;;;;;;;;;;;;;;;;;;1022544;29;19950;-77
2022/12/26 00:20:37;;;;;;;;;;;;;;;;;;1019059;29;20361;-77
2022/12/26 00:21:08;;;;;;;;;;;;;;;;;;1019627;29;19914;-76
2022/12/26 00:21:39;;;;;;;;;;;;;;;;;;1022138;29;19949;-77
2022/12/26 00:22:10;;;;;;;;;;;;;;;;;;1023385;29;20365;-77
2022/12/26 00:22:41;;;;;;;;;;;;;;;;;;1023209;29;19915;-77
2022/12/26 00:23:11;;;;;;;;;;;;;;;;;;1023183;28;19922;-77
2022/12/26 00:23:42;;;;;;;;;;;;;;;;;;1027474;28;19918;-77
2022/12/26 00:24:13;;;;;;;;;;;;;;;;;;1023651;29;20001;-77
2022/12/26 00:24:44;;;;;;;;;;;;;;;;;;1023766;29;19965;-77
2022/12/26 00:25:15;;;;;;;;;;;;;;;;;;1023854;29;20091;-76
2022/12/26 00:25:46;;;;;;;;;;;;;;;;;;1024021;28;19914;-77
2022/12/26 00:26:17;;;;;;;;;;;;;;;;;;1028255;28;20384;-76
2022/12/26 00:26:47;;;;;;;;;;;;;;;;;;1028001;28;19922;-77
2022/12/26 00:27:18;;;;;;;;;;;;;;;;;;1028043;28;20008;-77
2022/12/26 00:27:49;;;;;;;;;;;;;;;;;;1028264;28;19918;-77
2022/12/26 00:28:20;;;;;;;;;;;;;;;;;;1026298;28;19910;-77
2022/12/26 00:28:51;;;;;;;;;;;;;;;;;;1024139;29;20001;-77
2022/12/26 00:29:22;;;;;;;;;;;;;;;;;;1020062;29;19915;-78
2022/12/26 00:29:53;;;;;;;;;;;;;;;;;;1020732;29;20407;-77
2022/12/26 00:30:24;;;;;;;;;;;;;;;;;;1024095;29;19945;-76
2022/12/26 00:30:55;;;;;;;;;;;;;;;;;;1024203;29;19914;-77
2022/12/26 00:31:26;;;;;;;;;;;;;;;;;;1023912;28;19914;-77
2022/12/26 00:31:57;;;;;;;;;;;;;;;;;;1027383;28;19914;-76
2022/12/26 00:32:27;;;;;;;;;;;;;;;;;;1027416;28;20569;-77
2022/12/26 00:32:58;;;;;;;;;;;;;;;;;;1028081;28;20639;-76
2022/12/26 00:33:29;;;;;;;;;;;;;;;;;;1027848;28;19918;-77
2022/12/26 00:34:00;;;;;;;;;;;;;;;;;;1027970;28;19937;-77
2022/12/26 00:34:31;;;;;;;;;;;;;;;;;;1027500;28;19914;-77
2022/12/26 00:35:02;;;;;;;;;;;;;;;;;;1028018;28;20004;-77
2022/12/26 00:35:33;;;;;;;;;;;;;;;;;;1027286;28;19914;-77
2022/12/26 00:36:04;;;;;;;;;;;;;;;;;;1029299;28;19915;-77
2022/12/26 00:36:34;;;;;;;;;;;;;;;;;;1023325;28;19914;-77
2022/12/26 00:37:05;;;;;;;;;;;;;;;;;;1022853;29;20440;-77
2022/12/26 00:37:36;;;;;;;;;;;;;;;;;;1019387;29;19934;-77
2022/12/26 00:38:07;;;;;;;;;;;;;;;;;;1020295;29;20621;-77
2022/12/26 00:38:38;;;;;;;;;;;;;;;;;;1023286;28;19915;-77
2022/12/26 00:39:09;;;;;;;;;;;;;;;;;;1020375;29;20483;-77
2022/12/26 00:39:40;;;;;;;;;;;;;;;;;;1019264;29;19957;-76
2022/12/26 00:40:10;;;;;;;;;;;;;;;;;;1017617;29;20028;-77
2022/12/26 00:40:43;;;;;;;;;;;;;;;;;;1019480;29;20662;-77
2022/12/26 00:41:14;;;;;;;;;;;;;;;;;;1021091;29;19915;-77
2022/12/26 00:41:45;;;;;;;;;;;;;;;;;;1019784;29;20274;-77
2022/12/26 00:42:16;;;;;;;;;;;;;;;;;;1024018;29;19915;-77
2022/12/26 00:42:47;;;;;;;;;;;;;;;;;;1023530;29;20346;-76
2022/12/26 00:43:18;;;;;;;;;;;;;;;;;;1024102;28;20484;-77
2022/12/26 00:43:49;;;;;;;;;;;;;;;;;;1027880;28;19922;-77
2022/12/26 00:44:19;;;;;;;;;;;;;;;;;;1027903;28;20269;-76
2022/12/26 00:44:50;;;;;;;;;;;;;;;;;;1023941;28;19984;-77
2022/12/26 00:45:21;;;;;;;;;;;;;;;;;;1028123;28;19920;-78
2022/12/26 00:45:52;;;;;;;;;;;;;;;;;;1023655;29;20370;-77
2022/12/26 00:46:23;;;;;;;;;;;;;;;;;;1024567;29;19914;-77
2022/12/26 00:46:54;;;;;;;;;;;;;;;;;;1023478;28;19954;-77
2022/12/26 00:47:25;;;;;;;;;;;;;;;;;;1023970;28;19914;-77
2022/12/26 00:47:55;;;;;;;;;;;;;;;;;;1027774;28;20706;-76
2022/12/26 00:48:26;;;;;;;;;;;;;;;;;;1028036;28;19922;-77
2022/12/26 00:48:57;;;;;;;;;;;;;;;;;;1027673;28;20285;-76
2022/12/26 00:49:28;;;;;;;;;;;;;;;;;;1027662;28;19942;-76
2022/12/26 00:49:59;;;;;;;;;;;;;;;;;;1027349;28;19925;-77
2022/12/26 00:50:30;;;;;;;;;;;;;;;;;;1027487;28;20012;-77
2022/12/26 00:51:01;;;;;;;;;;;;;;;;;;1027724;28;19933;-77
2022/12/26 00:51:32;;;;;;;;;;;;;;;;;;1023970;29;20025;-77
2022/12/26 00:52:02;;;;;;;;;;;;;;;;;;1023545;29;19942;-76
2022/12/26 00:52:33;;;;;;;;;;;;;;;;;;1023984;29;19915;-75
2022/12/26 00:53:04;;;;;;;;;;;;;;;;;;1024053;28;19914;-77
2022/12/26 00:53:35;;;;;;;;;;;;;;;;;;1023724;29;20495;-77
2022/12/26 00:54:06;;;;;;;;;;;;;;;;;;1024257;29;19957;-77
2022/12/26 00:54:37;;;;;;;;;;;;;;;;;;1023788;29;19911;-77
2022/12/26 00:55:08;;;;;;;;;;;;;;;;;;1024212;28;19962;-77
2022/12/26 00:55:38;;;;;;;;;;;;;;;;;;1027982;28;19921;-77
2022/12/26 00:56:09;;;;;;;;;;;;;;;;;;1024069;29;19914;-77
2022/12/26 00:56:40;;;;;;;;;;;;;;;;;;1024332;29;20019;-77
2022/12/26 00:57:11;;;;;;;;;;;;;;;;;;1023922;29;20428;-77
2022/12/26 00:57:42;;;;;;;;;;;;;;;;;;1019703;29;19915;-76
2022/12/26 00:58:13;;;;;;;;;;;;;;;;;;1023691;29;20633;-77
2022/12/26 00:58:44;;;;;;;;;;;;;;;;;;1023579;29;19919;-77
2022/12/26 00:59:15;;;;;;;;;;;;;;;;;;1024826;28;19922;-77
2022/12/26 00:59:45;;;;;;;;;;;;;;;;;;1023300;29;20005;-77
2022/12/26 01:00:16;;;;;;;;;;;;;;;;;;1019964;29;19919;-77
2022/12/26 01:00:47;;;;;;;;;;;;;;;;;;1020011;29;19945;-76
2022/12/26 01:01:18;;;;;;;;;;;;;;;;;;1027872;28;19964;-77
2022/12/26 01:01:49;;;;;;;;;;;;;;;;;;1028238;28;19917;-76
2022/12/26 01:02:38;;;;;;;;;;;;;;;;;;1027337;28;19977;-77
2022/12/26 01:03:09;;;;;;;;;;;;;;;;;;1020047;29;19946;-77
2022/12/26 01:03:40;;;;;;;;;;;;;;;;;;1022533;29;19921;-77
2022/12/26 01:04:11;;;;;;;;;;;;;;;;;;1024424;29;20012;-77
2022/12/26 01:04:42;;;;;;;;;;;;;;;;;;1023728;29;19917;-77
2022/12/26 01:05:12;;;;;;;;;;;;;;;;;;1023659;29;19961;-77
2022/12/26 01:05:43;;;;;;;;;;;;;;;;;;1023656;29;19984;-77
2022/12/26 01:06:14;;;;;;;;;;;;;;;;;;1026021;28;20274;-77
2022/12/26 01:06:45;;;;;;;;;;;;;;;;;;1024469;29;19965;-77
2022/12/26 01:07:16;;;;;;;;;;;;;;;;;;1024012;29;20499;-77
2022/12/26 01:07:47;;;;;;;;;;;;;;;;;;1023833;29;19921;-76
2022/12/26 01:08:18;;;;;;;;;;;;;;;;;;1023797;29;20464;-77
2022/12/26 01:08:48;;;;;;;;;;;;;;;;;;1023749;29;20005;-77
2022/12/26 01:09:19;;;;;;;;;;;;;;;;;;1023721;29;20480;-76
2022/12/26 01:09:50;;;;;;;;;;;;;;;;;;1020310;29;20443;-77
2022/12/26 01:10:21;;;;;;;;;;;;;;;;;;1020123;29;19962;-77
2022/12/26 01:10:52;;;;;;;;;;;;;;;;;;1023925;29;19937;-77
2022/12/26 01:11:41;;;;;;;;;;;;;;;;;;1022375;29;20008;-77
2022/12/26 01:12:12;;;;;;;;;;;;;;;;;;1024538;29;19921;-77
2022/12/26 01:12:43;;;;;;;;;;;;;;;;;;1023940;29;19929;-76
2022/12/26 01:13:14;;;;;;;;;;;;;;;;;;1026323;28;20470;-76
2022/12/26 01:13:44;;;;;;;;;;;;;;;;;;1025677;28;19970;-77
2022/12/26 01:14:15;;;;;;;;;;;;;;;;;;1027709;28;19980;-77
2022/12/26 01:14:46;;;;;;;;;;;;;;;;;;1027304;28;19993;-77
2022/12/26 01:15:17;;;;;;;;;;;;;;;;;;1027883;28;19966;-77
2022/12/26 01:15:48;;;;;;;;;;;;;;;;;;1027672;28;19915;-77
2022/12/26 01:16:19;;;;;;;;;;;;;;;;;;1028039;28;20546;-77
2022/12/26 01:16:50;;;;;;;;;;;;;;;;;;1023660;29;20405;-78
2022/12/26 01:17:21;;;;;;;;;;;;;;;;;;1020274;29;19923;-77
2022/12/26 01:17:52;;;;;;;;;;;;;;;;;;1019566;29;20460;-76
2022/12/26 01:18:22;;;;;;;;;;;;;;;;;;1019999;29;19989;-77
2022/12/26 01:18:53;;;;;;;;;;;;;;;;;;1023939;28;20005;-76
2022/12/26 01:19:24;;;;;;;;;;;;;;;;;;1023664;29;19914;-77
2022/12/26 01:19:55;;;;;;;;;;;;;;;;;;1024257;29;19915;-77
2022/12/26 01:20:26;;;;;;;;;;;;;;;;;;1023624;29;19973;-77
2022/12/26 01:20:57;;;;;;;;;;;;;;;;;;1023872;29;19921;-77
2022/12/26 01:21:28;;;;;;;;;;;;;;;;;;1023863;29;19922;-77
2022/12/26 01:21:59;;;;;;;;;;;;;;;;;;1023983;28;20021;-77
2022/12/26 01:22:29;;;;;;;;;;;;;;;;;;1023970;29;19914;-77
2022/12/26 01:23:00;;;;;;;;;;;;;;;;;;1023639;29;20368;-76
2022/12/26 01:23:31;;;;;;;;;;;;;;;;;;1023830;29;19940;-77
2022/12/26 01:24:02;;;;;;;;;;;;;;;;;;1023564;29;19946;-77
2022/12/26 01:24:33;;;;;;;;;;;;;;;;;;1019636;29;19915;-77
2022/12/26 01:25:04;;;;;;;;;;;;;;;;;;1019724;29;19961;-77
2022/12/26 01:25:35;;;;;;;;;;;;;;;;;;1020208;29;20025;-77
2022/12/26 01:26:05;;;;;;;;;;;;;;;;;;1024120;28;19962;-77
2022/12/26 01:26:36;;;;;;;;;;;;;;;;;;1028093;28;19934;-78
2022/12/26 01:27:07;;;;;;;;;;;;;;;;;;1023325;29;20004;-77
2022/12/26 01:27:38;;;;;;;;;;;;;;;;;;1020076;29;20009;-77
2022/12/26 01:28:09;;;;;;;;;;;;;;;;;;1021194;29;19922;-78
2022/12/26 01:28:40;;;;;;;;;;;;;;;;;;1023843;29;19973;-78
2022/12/26 01:29:11;;;;;;;;;;;;;;;;;;1023393;29;19916;-77
2022/12/26 01:29:41;;;;;;;;;;;;;;;;;;1023871;28;20753;-77
2022/12/26 01:30:12;;;;;;;;;;;;;;;;;;1019865;29;19917;-77
2022/12/26 01:30:43;;;;;;;;;;;;;;;;;;1019979;29;19982;-77
2022/12/26 01:31:14;;;;;;;;;;;;;;;;;;1019769;29;19918;-77
2022/12/26 01:31:45;;;;;;;;;;;;;;;;;;1020164;28;20009;-77
2022/12/26 01:32:16;;;;;;;;;;;;;;;;;;1024626;28;19915;-78
2022/12/26 01:32:47;;;;;;;;;;;;;;;;;;1024853;28;19914;-77
2022/12/26 01:33:17;;;;;;;;;;;;;;;;;;1025093;28;20013;-77
2022/12/26 01:33:48;;;;;;;;;;;;;;;;;;1023937;29;19921;-77
2022/12/26 01:34:19;;;;;;;;;;;;;;;;;;1023755;28;19914;-77
2022/12/26 01:34:54;;;;;;;;;;;;;;;;;;1023783;29;19914;-77
2022/12/26 01:35:25;;;;;;;;;;;;;;;;;;1024647;28;19914;-78
2022/12/26 01:35:55;;;;;;;;;;;;;;;;;;1023912;29;19914;-77
2022/12/26 01:36:26;;;;;;;;;;;;;;;;;;1023653;29;20480;-78
2022/12/26 01:36:57;;;;;;;;;;;;;;;;;;1019661;29;19922;-77
2022/12/26 01:37:28;;;;;;;;;;;;;;;;;;1019844;29;20370;-77
2022/12/26 01:37:59;;;;;;;;;;;;;;;;;;1023928;29;19914;-78
2022/12/26 01:38:30;;;;;;;;;;;;;;;;;;1019904;29;19915;-77
2022/12/26 01:39:01;;;;;;;;;;;;;;;;;;1020057;29;20007;-77
2022/12/26 01:39:33;;;;;;;;;;;;;;;;;;1018828;29;21734;-77
2022/12/26 01:40:04;;;;;;;;;;;;;;;;;;1020334;29;20346;-77
2022/12/26 01:40:35;;;;;;;;;;;;;;;;;;1020259;29;19966;-78
2022/12/26 01:41:15;;;;;;;;;;;;;;;;;;1020040;29;19966;-78
2022/12/26 01:41:46;;;;;;;;;;;;;;;;;;1019644;29;19986;-77
2022/12/26 01:42:17;;;;;;;;;;;;;;;;;;1021344;29;19915;-77
2022/12/26 01:42:48;;;;;;;;;;;;;;;;;;1025221;28;20290;-77
2022/12/26 01:43:19;;;;;;;;;;;;;;;;;;1024041;29;19914;-77
2022/12/26 01:43:50;;;;;;;;;;;;;;;;;;1023865;29;20410;-78
2022/12/26 01:44:20;;;;;;;;;;;;;;;;;;1024263;29;19914;-77
2022/12/26 01:44:51;;;;;;;;;;;;;;;;;;1023818;28;19915;-77
2022/12/26 01:45:22;;;;;;;;;;;;;;;;;;1023918;29;19921;-77
2022/12/26 01:45:53;;;;;;;;;;;;;;;;;;1023985;29;19937;-77
2022/12/26 01:46:24;;;;;;;;;;;;;;;;;;1024177;29;19920;-77
2022/12/26 01:46:55;;;;;;;;;;;;;;;;;;1023585;29;19922;-78
2022/12/26 01:47:26;;;;;;;;;;;;;;;;;;1023903;29;19938;-77
2022/12/26 01:47:56;;;;;;;;;;;;;;;;;;1023835;29;19997;-77
2022/12/26 01:48:32;;;;;;;;;;;;;;;;;;1024284;29;19919;-77
2022/12/26 01:49:03;;;;;;;;;;;;;;;;;;1027069;28;19914;-77
2022/12/26 01:49:34;;;;;;;;;;;;;;;;;;1023951;29;19921;-78
2022/12/26 01:50:04;;;;;;;;;;;;;;;;;;1023833;29;19914;-77
2022/12/26 01:50:35;;;;;;;;;;;;;;;;;;1023612;29;20009;-77
2022/12/26 01:51:06;;;;;;;;;;;;;;;;;;1024209;28;19914;-77
2022/12/26 01:51:37;;;;;;;;;;;;;;;;;;1027943;28;20413;-78
2022/12/26 01:52:08;;;;;;;;;;;;;;;;;;1027451;28;20517;-77
2022/12/26 01:52:39;;;;;;;;;;;;;;;;;;1028186;28;19918;-77
2022/12/26 01:53:10;;;;;;;;;;;;;;;;;;1028149;28;20337;-78
2022/12/26 01:53:41;;;;;;;;;;;;;;;;;;1023980;29;19961;-78
2022/12/26 01:54:11;;;;;;;;;;;;;;;;;;1023840;29;19977;-78
2022/12/26 01:54:42;;;;;;;;;;;;;;;;;;1023858;29;20282;-77
2022/12/26 01:55:13;;;;;;;;;;;;;;;;;;1023836;29;19907;-77
2022/12/26 01:55:44;;;;;;;;;;;;;;;;;;1023383;29;20459;-77
2022/12/26 01:56:15;;;;;;;;;;;;;;;;;;1024220;29;19914;-77
2022/12/26 01:56:46;;;;;;;;;;;;;;;;;;1023842;29;19945;-77
2022/12/26 01:57:17;;;;;;;;;;;;;;;;;;1023585;29;20617;-77
2022/12/26 01:57:47;;;;;;;;;;;;;;;;;;1023837;29;19914;-77
2022/12/26 01:58:18;;;;;;;;;;;;;;;;;;1023823;29;20336;-77
2022/12/26 01:58:49;;;;;;;;;;;;;;;;;;1025993;28;20388;-77
2022/12/26 01:59:20;;;;;;;;;;;;;;;;;;1028207;28;20344;-77
2022/12/26 01:59:51;;;;;;;;;;;;;;;;;;1023437;29;20013;-77
2022/12/26 02:00:22;;;;;;;;;;;;;;;;;;1023866;29;19993;-78
2022/12/26 02:00:53;;;;;;;;;;;;;;;;;;1023529;29;19919;-77
2022/12/26 02:01:23;;;;;;;;;;;;;;;;;;1023959;29;20014;-78
2022/12/26 02:01:54;;;;;;;;;;;;;;;;;;1023757;29;19926;-77
2022/12/26 02:02:25;;;;;;;;;;;;;;;;;;1019701;29;19923;-77
2022/12/26 02:05:34;;;;;;;;;;;;;;;;;;1028416;28;19917;-77
2022/12/26 02:06:05;;;;;;;;;;;;;;;;;;1023626;29;20437;-77
2022/12/26 02:06:35;;;;;;;;;;;;;;;;;;1023812;29;20481;-77
2022/12/26 02:07:06;;;;;;;;;;;;;;;;;;1023773;29;20048;-77
2022/12/26 02:07:37;;;;;;;;;;;;;;;;;;1023507;29;20503;-77
2022/12/26 02:08:08;;;;;;;;;;;;;;;;;;1019828;29;19936;-77
2022/12/26 02:08:39;;;;;;;;;;;;;;;;;;1019585;29;19918;-77
2022/12/26 02:09:10;;;;;;;;;;;;;;;;;;1019831;29;19969;-77
2022/12/26 02:09:41;;;;;;;;;;;;;;;;;;1023948;28;19921;-77
2022/12/26 02:10:12;;;;;;;;;;;;;;;;;;1019582;29;19915;-77
2022/12/26 02:10:42;;;;;;;;;;;;;;;;;;1020453;28;20402;-77
2022/12/26 02:11:13;;;;;;;;;;;;;;;;;;1023243;29;19915;-77
2022/12/26 02:11:44;;;;;;;;;;;;;;;;;;1020254;29;20301;-79
2022/12/26 02:12:15;;;;;;;;;;;;;;;;;;1024207;28;19914;-77
2022/12/26 02:12:46;;;;;;;;;;;;;;;;;;1023479;29;19961;-77
2022/12/26 02:13:17;;;;;;;;;;;;;;;;;;1023505;29;20508;-77
2022/12/26 02:13:48;;;;;;;;;;;;;;;;;;1023553;29;19982;-77
2022/12/26 02:14:18;;;;;;;;;;;;;;;;;;1023679;28;19917;-77
2022/12/26 02:14:49;;;;;;;;;;;;;;;;;;1023883;29;20345;-78
2022/12/26 02:15:20;;;;;;;;;;;;;;;;;;1023595;29;20054;-77
2022/12/26 02:15:51;;;;;;;;;;;;;;;;;;1024777;28;20341;-77
2022/12/26 02:16:24;;;;;;;;;;;;;;;;;;1027734;28;19914;-77
2022/12/26 02:16:55;;;;;;;;;;;;;;;;;;1023765;29;19914;-77
2022/12/26 02:17:26;;;;;;;;;;;;;;;;;;1023580;29;19998;-77
2022/12/26 02:17:57;;;;;;;;;;;;;;;;;;1023797;29;19917;-77
2022/12/26 02:18:27;;;;;;;;;;;;;;;;;;1023808;28;19964;-77
2022/12/26 02:18:58;;;;;;;;;;;;;;;;;;1027963;28;20403;-77
2022/12/26 02:19:29;;;;;;;;;;;;;;;;;;1027782;28;19914;-77
2022/12/26 02:20:00;;;;;;;;;;;;;;;;;;1023877;29;20377;-77
2022/12/26 02:20:31;;;;;;;;;;;;;;;;;;1023438;28;19914;-77
2022/12/26 02:21:02;;;;;;;;;;;;;;;;;;1023746;29;19921;-77
2022/12/26 02:21:33;;;;;;;;;;;;;;;;;;1023419;29;19921;-77
2022/12/26 02:22:04;;;;;;;;;;;;;;;;;;1019939;29;19922;-77
2022/12/26 02:22:35;;;;;;;;;;;;;;;;;;1023604;29;19914;-77
2022/12/26 02:23:06;;;;;;;;;;;;;;;;;;1023620;29;19946;-77
2022/12/26 02:23:37;;;;;;;;;;;;;;;;;;1023512;28;19989;-77
2022/12/26 02:24:08;;;;;;;;;;;;;;;;;;1028000;28;19914;-77
2022/12/26 02:24:38;;;;;;;;;;;;;;;;;;1027587;28;20644;-77
2022/12/26 02:25:09;;;;;;;;;;;;;;;;;;1023840;29;19922;-77
2022/12/26 02:25:40;;;;;;;;;;;;;;;;;;1023529;28;20387;-77
2022/12/26 02:26:11;;;;;;;;;;;;;;;;;;1023458;29;19924;-78
2022/12/26 02:26:42;;;;;;;;;;;;;;;;;;1023311;29;20397;-77
2022/12/26 02:27:13;;;;;;;;;;;;;;;;;;1019628;29;19918;-77
2022/12/26 02:27:44;;;;;;;;;;;;;;;;;;1023315;29;20286;-78
2022/12/26 02:28:14;;;;;;;;;;;;;;;;;;1019935;29;19975;-77
2022/12/26 02:28:45;;;;;;;;;;;;;;;;;;1024498;28;20507;-78
2022/12/26 02:29:16;;;;;;;;;;;;;;;;;;1023757;28;19918;-77
2022/12/26 02:29:47;;;;;;;;;;;;;;;;;;1027436;28;19914;-77
2022/12/26 02:30:18;;;;;;;;;;;;;;;;;;1023844;29;20464;-77
2022/12/26 02:30:53;;;;;;;;;;;;;;;;;;1019403;29;19914;-77
2022/12/26 02:31:24;;;;;;;;;;;;;;;;;;1019407;29;19922;-77
2022/12/26 02:31:55;;;;;;;;;;;;;;;;;;1020021;29;20634;-77
2022/12/26 02:32:26;;;;;;;;;;;;;;;;;;1024663;28;19946;-77
2022/12/26 02:32:57;;;;;;;;;;;;;;;;;;1023427;29;19953;-77
2022/12/26 02:33:28;;;;;;;;;;;;;;;;;;1023508;29;19914;-77
2022/12/26 02:33:59;;;;;;;;;;;;;;;;;;1023277;29;19914;-77
2022/12/26 02:34:30;;;;;;;;;;;;;;;;;;1023304;29;20464;-78
2022/12/26 02:35:01;;;;;;;;;;;;;;;;;;1023272;29;19910;-77
2022/12/26 02:35:31;;;;;;;;;;;;;;;;;;1023434;29;20578;-77
2022/12/26 02:36:02;;;;;;;;;;;;;;;;;;1020170;29;20342;-77
2022/12/26 02:36:33;;;;;;;;;;;;;;;;;;1023223;28;19918;-77
2022/12/26 02:37:04;;;;;;;;;;;;;;;;;;1023558;29;20301;-77
2022/12/26 02:37:35;;;;;;;;;;;;;;;;;;1023425;29;20002;-77
2022/12/26 02:38:06;;;;;;;;;;;;;;;;;;1024231;28;20546;-77
2022/12/26 02:38:37;;;;;;;;;;;;;;;;;;1023327;29;19914;-77
2022/12/26 02:39:07;;;;;;;;;;;;;;;;;;1023755;29;20354;-77
2022/12/26 02:39:38;;;;;;;;;;;;;;;;;;1022787;29;19974;-77
2022/12/26 02:40:09;;;;;;;;;;;;;;;;;;1023624;29;20539;-77
2022/12/26 02:40:41;;;;;;;;;;;;;;;;;;1023663;29;19916;-78
2022/12/26 02:41:12;;;;;;;;;;;;;;;;;;1023520;29;20281;-77
2022/12/26 02:41:43;;;;;;;;;;;;;;;;;;1023190;29;20337;-77
2022/12/26 02:42:14;;;;;;;;;;;;;;;;;;1023633;29;20465;-77
2022/12/26 02:42:45;;;;;;;;;;;;;;;;;;1023203;29;20021;-77
2022/12/26 02:43:15;;;;;;;;;;;;;;;;;;1025827;28;20405;-78
2022/12/26 02:43:46;;;;;;;;;;;;;;;;;;1022836;29;19922;-77
2022/12/26 02:47:04;;;;;;;;;;;;;;;;;;1027452;28;19925;-77
2022/12/26 02:47:35;;;;;;;;;;;;;;;;;;1027674;28;19922;-77
2022/12/26 02:48:06;;;;;;;;;;;;;;;;;;1028142;28;19945;-78
2022/12/26 02:48:37;;;;;;;;;;;;;;;;;;1027885;28;20573;-77
2022/12/26 02:49:08;;;;;;;;;;;;;;;;;;1027747;28;19914;-75
2022/12/26 03:13:09;;;;;;;;;;;;;;;;;;1027845;28;20595;-76
2022/12/26 03:13:35;;;;;;;;;;;;;;;;;;1027264;28;19920;-78
2022/12/26 03:14:06;;;;;;;;;;;;;;;;;;1027445;28;19941;-77
2022/12/26 03:14:37;;;;;;;;;;;;;;;;;;1027205;28;20514;-78
2022/12/26 03:15:08;;;;;;;;;;;;;;;;;;1026885;28;19992;-79
2022/12/26 03:17:18;;;;;;;;;;;;;;;;;;1022892;29;19938;-77
2022/12/26 03:17:49;;;;;;;;;;;;;;;;;;1023307;29;19954;-76
2022/12/26 03:18:20;;;;;;;;;;;;;;;;;;1023223;29;19914;-76
2022/12/26 03:18:51;;;;;;;;;;;;;;;;;;1019616;29;19923;-76
2022/12/26 03:19:22;;;;;;;;;;;;;;;;;;1023096;29;19918;-75
2022/12/26 03:19:58;;;;;;;;;;;;;;;;;;1018755;29;19918;-76
2022/12/26 03:20:29;;;;;;;;;;;;;;;;;;1019734;29;19915;-76
2022/12/26 03:21:00;;;;;;;;;;;;;;;;;;1022836;29;19914;-76
2022/12/26 03:21:31;;;;;;;;;;;;;;;;;;1022549;29;19915;-76
2022/12/26 03:22:29;;;;;;;;;;;;;;;;;;1019209;29;20009;-76
2022/12/26 03:22:53;;;;;;;;;;;;;;;;;;1020809;29;19915;-75
2022/12/26 03:23:24;;;;;;;;;;;;;;;;;;1023030;29;19914;-78
2022/12/26 03:23:54;;;;;;;;;;;;;;;;;;1025862;28;19973;-78
2022/12/26 03:26:38;;;;;;;;;;;;;;;;;;1027422;28;20629;-77
2022/12/26 03:26:56;;;;;;;;;;;;;;;;;;1027068;28;19920;-78
2022/12/26 03:27:26;;;;;;;;;;;;;;;;;;1027752;28;19910;-78
2022/12/26 03:27:57;;;;;;;;;;;;;;;;;;1022370;29;20054;-78
2022/12/26 03:28:28;;;;;;;;;;;;;;;;;;1023079;29;19914;-78
2022/12/26 03:30:47;;;;;;;;;;;;;;;;;;1023033;29;19929;-78
2022/12/26 03:31:18;;;;;;;;;;;;;;;;;;1020272;29;19921;-76
2022/12/26 03:31:49;;;;;;;;;;;;;;;;;;1018503;29;19922;-76
2022/12/26 03:32:20;;;;;;;;;;;;;;;;;;1019453;29;19919;-77
2022/12/26 03:32:51;;;;;;;;;;;;;;;;;;1018828;29;19954;-78
2022/12/26 03:34:17;;;;;;;;;;;;;;;;;;1026618;28;20024;-76
2022/12/26 03:34:48;;;;;;;;;;;;;;;;;;1026959;28;20594;-75
2022/12/26 03:35:19;;;;;;;;;;;;;;;;;;1026873;28;20745;-78
2022/12/26 03:35:50;;;;;;;;;;;;;;;;;;1027259;28;19914;-78
2022/12/26 03:36:21;;;;;;;;;;;;;;;;;;1022572;29;20029;-77
2022/12/26 03:36:52;;;;;;;;;;;;;;;;;;1022950;28;19915;-78
2022/12/26 03:37:22;;;;;;;;;;;;;;;;;;1022731;29;19914;-79
2022/12/26 03:37:53;;;;;;;;;;;;;;;;;;1022928;29;20688;-76
2022/12/26 03:38:24;;;;;;;;;;;;;;;;;;1022806;28;19914;-77
2022/12/26 03:38:55;;;;;;;;;;;;;;;;;;1027052;28;19950;-78
2022/12/26 04:19:25;;;;;;;;;;;;;;;;;;1022930;29;19922;-77
2022/12/26 04:19:57;;;;;;;;;;;;;;;;;;1022976;29;19932;-77
2022/12/26 04:20:27;;;;;;;;;;;;;;;;;;1022709;29;20009;-77
2022/12/26 04:20:58;;;;;;;;;;;;;;;;;;1018512;29;19914;-77
2022/12/26 04:44:11;;;;;;;;;;;;;;;;;;1022621;29;19977;-78
2022/12/26 04:44:42;;;;;;;;;;;;;;;;;;1022821;29;19907;-77
2022/12/26 04:45:13;;;;;;;;;;;;;;;;;;1023563;29;20278;-77
2022/12/26 04:45:44;;;;;;;;;;;;;;;;;;1022447;29;20416;-78
2022/12/26 04:46:15;;;;;;;;;;;;;;;;;;1018431;29;19910;-77
2022/12/26 04:46:46;;;;;;;;;;;;;;;;;;1018100;29;20415;-77
2022/12/26 04:47:17;;;;;;;;;;;;;;;;;;1018730;29;19926;-77
2022/12/26 04:50:16;;;;;;;;;;;;;;;;;;1023483;29;20317;-77
2022/12/26 04:50:47;;;;;;;;;;;;;;;;;;1022893;29;20343;-77
2022/12/26 04:51:18;;;;;;;;;;;;;;;;;;1022900;29;20021;-77
2022/12/26 04:51:49;;;;;;;;;;;;;;;;;;1022592;29;19914;-77
2022/12/26 04:52:20;;;;;;;;;;;;;;;;;;1018587;29;19911;-77
2022/12/26 04:52:57;;;;;;;;;;;;;;;;;;1019135;29;20576;-77
2022/12/26 04:53:28;;;;;;;;;;;;;;;;;;1018589;29;19923;-77
2022/12/26 04:53:59;;;;;;;;;;;;;;;;;;1018626;29;19995;-76
2022/12/26 04:54:30;;;;;;;;;;;;;;;;;;1015819;29;19916;-77
2022/12/26 04:55:00;;;;;;;;;;;;;;;;;;1018785;29;19915;-77
2022/12/26 04:55:31;;;;;;;;;;;;;;;;;;1021054;29;20362;-76
2022/12/26 04:56:02;;;;;;;;;;;;;;;;;;1018832;29;19955;-77
2022/12/26 04:56:33;;;;;;;;;;;;;;;;;;1022715;29;19911;-76
2022/12/26 04:57:04;;;;;;;;;;;;;;;;;;1022661;29;20567;-77
2022/12/26 04:57:35;;;;;;;;;;;;;;;;;;1022735;29;19907;-77
2022/12/26 04:58:06;;;;;;;;;;;;;;;;;;1023004;29;19933;-77
2022/12/26 04:58:37;;;;;;;;;;;;;;;;;;1022241;29;19917;-77
2022/12/26 04:59:07;;;;;;;;;;;;;;;;;;1022638;29;19910;-77
2022/12/26 04:59:38;;;;;;;;;;;;;;;;;;1018492;29;20002;-78
2022/12/26 05:00:09;;;;;;;;;;;;;;;;;;1019536;28;19911;-77
2022/12/26 05:00:40;;;;;;;;;;;;;;;;;;1023215;29;20523;-77
2022/12/26 05:09:48;;;;;;;;;;;;;;;;;;1010985;29;20006;-77
2022/12/26 05:10:19;;;;;;;;;;;;;;;;;;1011192;29;20019;-77
2022/12/26 05:10:50;;;;;;;;;;;;;;;;;;1011230;29;19958;-77
2022/12/26 05:11:20;;;;;;;;;;;;;;;;;;1011423;29;19955;-77
2022/12/26 05:11:51;;;;;;;;;;;;;;;;;;1007165;29;19908;-77
2022/12/26 05:12:22;;;;;;;;;;;;;;;;;;1007541;29;19919;-77
2022/12/26 05:12:53;;;;;;;;;;;;;;;;;;1007201;29;20431;-77
2022/12/26 05:13:24;;;;;;;;;;;;;;;;;;1008055;29;19920;-77
2022/12/26 05:13:55;;;;;;;;;;;;;;;;;;1010961;29;19915;-77
2022/12/26 05:14:26;;;;;;;;;;;;;;;;;;1011491;29;19915;-77
2022/12/26 05:14:57;;;;;;;;;;;;;;;;;;1014330;29;19955;-77
2022/12/26 05:28:40;;;;;;;;;;;;;;;;;;1023045;29;19921;-77
2022/12/26 05:28:44;;;;;;;;;;;;;;;;;;1023467;29;19993;-77
2022/12/26 05:29:15;;;;;;;;;;;;;;;;;;1023879;29;19915;-77
2022/12/26 05:29:46;;;;;;;;;;;;;;;;;;1022826;28;20157;-76
2022/12/26 05:30:17;;;;;;;;;;;;;;;;;;1023501;29;19915;-76
2022/12/26 05:30:48;;;;;;;;;;;;;;;;;;1023024;29;19914;-76
2022/12/26 05:31:18;;;;;;;;;;;;;;;;;;1019244;29;20714;-76
2022/12/26 05:31:49;;;;;;;;;;;;;;;;;;1022902;29;19918;-77
2022/12/26 05:34:06;;;;;;;;;;;;;;;;;;1023316;29;20638;-75
2022/12/26 05:34:37;;;;;;;;;;;;;;;;;;1023934;28;19922;-77
2022/12/26 05:35:08;;;;;;;;;;;;;;;;;;1023328;28;19921;-77
2022/12/26 05:35:39;;;;;;;;;;;;;;;;;;1023709;28;19915;-78